Bingham, Nebraska
Current Conditions -  °F | °C
As of 4:53 PM on Saturday 20 Dec 2014 (Local Time) from KAIA Reporting Station
Clear Clear  
Wind Chill: 31°   Ceiling: Unl
Heat Index: 31°   Visibility: 10mi
Dew Point: 27°   Wind: 3mph
Humidity: 85%   Direction: 250°WSW
Pressure: 29.9"   Gusts: NA
Location:  42.02°N, 102.09°W
Report Text: KAIA 202353Z AUTO 25003KT 10SM CLR M01/M03 A2990 RMK AO2 SLP172 T10061028 10044 21011 58002
Loading
Personal Weather Stations






























Interactive Weather Map New forecast layout! Learn more

10-Day Weather Forecast

Advertisements
Track Severe Weather on mobile